createdAt,value
2019-04-05T00:02:26.869Z,97621.86
2019-04-05T00:04:54.106Z,97631.77
2019-04-05T00:07:20.957Z,97633.88
2019-04-05T00:09:47.813Z,97635.47
2019-04-05T00:12:15.592Z,97631.98
2019-04-05T00:14:45.111Z,97630.17
2019-04-05T00:17:11.889Z,97640.73
2019-04-05T00:19:38.829Z,97632.95
2019-04-05T00:22:05.666Z,97635.86
2019-04-05T00:24:32.552Z,97636.64
2019-04-05T00:26:59.630Z,97642.33
2019-04-05T00:29:26.630Z,97641.31
2019-04-05T00:31:53.795Z,97640.91
2019-04-05T00:34:20.931Z,97626.59
2019-04-05T00:36:48.389Z,97624.72
2019-04-05T00:39:15.659Z,97625.25
2019-04-05T00:41:42.569Z,97622.26
2019-04-05T00:44:09.333Z,97623.66
2019-04-05T00:46:36.500Z,97624.95
2019-04-05T00:49:03.566Z,97626.88
2019-04-05T00:51:30.769Z,97624.19
2019-04-05T00:53:57.702Z,97617.47
2019-04-05T00:56:24.903Z,97615.53
2019-04-05T00:58:52.384Z,97617.10
2019-04-05T01:01:19.364Z,97623.57
2019-04-05T01:03:46.432Z,97618.28
2019-04-05T01:06:13.999Z,97613.66
2019-04-05T01:08:41.268Z,97606.37
2019-04-05T01:11:08.474Z,97616.53
2019-04-05T01:13:37.534Z,97618.03
2019-04-05T01:16:04.650Z,97617.22
2019-04-05T01:18:32.061Z,97618.89
2019-04-05T01:21:02.503Z,97621.02
2019-04-05T01:23:30.012Z,97624.44
2019-04-05T01:26:04.186Z,97625.51
2019-04-05T01:28:31.526Z,97620.89
2019-04-05T01:30:58.719Z,97616.20
2019-04-05T01:33:26.292Z,97610.16
2019-04-05T01:35:53.711Z,97619.31
2019-04-05T01:38:21.000Z,97616.34
2019-04-05T01:40:48.314Z,97613.34
2019-04-05T01:43:16.110Z,97609.56
2019-04-05T01:45:53.446Z,97619.11
2019-04-05T01:48:14.422Z,97625.58
2019-04-05T01:50:41.412Z,97632.56
2019-04-05T01:53:08.506Z,97628.55
2019-04-05T01:55:35.727Z,97624.83
2019-04-05T01:58:03.881Z,97622.91
2019-04-05T02:00:32.456Z,97623.77
2019-04-05T02:02:59.496Z,97627.66
2019-04-05T02:05:26.598Z,97633.02
2019-04-05T02:07:54.241Z,97637.19
2019-04-05T02:10:22.198Z,97636.30
2019-04-05T02:12:49.052Z,97639.48
2019-04-05T02:15:27.837Z,97647.02
2019-04-05T02:17:56.683Z,97648.56
2019-04-05T02:20:24.155Z,97642.91
2019-04-05T02:22:51.762Z,97643.67
2019-04-05T02:25:19.418Z,97647.57
2019-04-05T02:27:46.623Z,97652.39
2019-04-05T02:30:14.263Z,97649.14
2019-04-05T02:32:43.567Z,97650.66
2019-04-05T02:35:11.174Z,97649.29
2019-04-05T02:37:38.615Z,97653.19
2019-04-05T02:40:13.970Z,97653.19
2019-04-05T02:42:46.190Z,97659.48
2019-04-05T02:45:17.495Z,97664.33
2019-04-05T02:47:56.578Z,97660.37
2019-04-05T02:50:29.247Z,97667.18
2019-04-05T02:53:01.882Z,97668.22
2019-04-05T02:55:30.376Z,97662.05
2019-04-05T02:58:00.812Z,97662.23
2019-04-05T03:00:31.625Z,97662.34
2019-04-05T03:03:00.319Z,97657.52
2019-04-05T03:05:28.069Z,97650.91
2019-04-05T03:07:56.463Z,97642.92
2019-04-05T03:10:57.690Z,97645.92
2019-04-05T03:13:30.103Z,97644.58
2019-04-05T03:16:06.088Z,97650.99
2019-04-05T03:18:38.655Z,97652.31
2019-04-05T03:21:08.383Z,97647.02
2019-04-05T03:23:41.052Z,97642.42
2019-04-05T03:26:13.697Z,97636.18
2019-04-05T03:28:46.250Z,97636.94
2019-04-05T03:31:23.483Z,97641.30
2019-04-05T03:33:46.383Z,97648.11
2019-04-05T03:36:13.774Z,97634.38
2019-04-05T03:38:41.789Z,97642.09
2019-04-05T03:41:10.370Z,97641.89
2019-04-05T03:43:38.399Z,97634.46
2019-04-05T03:46:09.042Z,97638.50
2019-04-05T03:48:36.698Z,97640.48
2019-04-05T03:51:04.678Z,97642.41
2019-04-05T03:53:31.900Z,97642.23
2019-04-05T03:56:00.471Z,97637.19
2019-04-05T03:58:27.836Z,97640.45
2019-04-05T04:00:55.002Z,97643.14
2019-04-05T04:03:23.299Z,97640.73
2019-04-05T04:05:52.204Z,97636.60
2019-04-05T04:08:23.155Z,97632.77
2019-04-05T04:10:51.176Z,97637.56
2019-04-05T04:13:18.639Z,97629.07
2019-04-05T04:15:45.942Z,97629.33
2019-04-05T04:18:15.737Z,97627.45
2019-04-05T04:20:54.324Z,97629.50
2019-04-05T04:23:27.204Z,97633.68
2019-04-05T04:25:54.674Z,97633.68
2019-04-05T04:28:21.778Z,97641.19
2019-04-05T04:30:49.157Z,97634.95
2019-04-05T04:33:17.323Z,97634.97
2019-04-05T04:35:44.899Z,97642.86
2019-04-05T04:38:14.840Z,97644.53
2019-04-05T04:40:42.155Z,97643.50
2019-04-05T04:43:09.547Z,97647.22
2019-04-05T04:45:39.613Z,97645.80
2019-04-05T04:48:07.794Z,97644.70
2019-04-05T04:50:35.605Z,97650.01
2019-04-05T04:53:03.070Z,97649.83
2019-04-05T04:55:30.124Z,97654.12
2019-04-05T04:57:57.769Z,97654.63
2019-04-05T05:00:25.740Z,97659.91
2019-04-05T05:02:54.002Z,97661.13
2019-04-05T05:05:23.701Z,97669.39
2019-04-05T05:07:50.861Z,97660.28
2019-04-05T05:10:20.061Z,97662.81
2019-04-05T05:12:47.133Z,97661.77
2019-04-05T05:15:14.988Z,97656.86
2019-04-05T05:17:42.155Z,97659.65
2019-04-05T05:20:10.963Z,97662.19
2019-04-05T05:22:38.158Z,97660.46
2019-04-05T05:25:05.997Z,97667.73
2019-04-05T05:27:33.308Z,97671.67
2019-04-05T05:30:02.270Z,97665.45
2019-04-05T05:32:29.690Z,97672.17
2019-04-05T05:35:02.241Z,97678.44
2019-04-05T05:37:25.878Z,97673.09
2019-04-05T05:39:54.093Z,97671.48
2019-04-05T05:42:32.181Z,97675.42
2019-04-05T05:44:59.333Z,97668.05
2019-04-05T05:47:26.515Z,97677.45
2019-04-05T05:49:53.262Z,97677.40
2019-04-05T05:52:21.150Z,97676.97
2019-04-05T05:54:48.125Z,97675.84
2019-04-05T05:57:15.380Z,97676.69
2019-04-05T05:59:42.426Z,97676.36
2019-04-05T06:02:09.472Z,97678.89
2019-04-05T06:04:36.659Z,97677.98
2019-04-05T06:07:04.721Z,97675.12
2019-04-05T06:09:31.541Z,97678.37
2019-04-05T06:11:58.444Z,97674.79
2019-04-05T06:14:27.617Z,97665.58
2019-04-05T06:16:54.971Z,97662.77
2019-04-05T06:19:22.251Z,97660.05
2019-04-05T06:21:49.225Z,97658.62
2019-04-05T06:24:16.174Z,97659.63
2019-04-05T06:26:42.979Z,97665.77
2019-04-05T06:29:09.988Z,97666.30
2019-04-05T06:31:37.131Z,97665.77
2019-04-05T06:34:04.507Z,97662.77
2019-04-05T06:36:32.032Z,97663.02
2019-04-05T06:38:59.137Z,97665.77
2019-04-05T06:41:25.904Z,97657.70
2019-04-05T06:43:53.067Z,97651.67
2019-04-05T06:46:19.980Z,97641.91
2019-04-05T06:48:46.821Z,97643.34
2019-04-05T06:51:14.425Z,97640.55
2019-04-05T06:53:41.773Z,97633.23
2019-04-05T06:56:08.769Z,97633.06
2019-04-05T06:58:35.563Z,97630.22
2019-04-05T07:01:02.924Z,97636.76
2019-04-05T07:03:30.099Z,97636.45
2019-04-05T07:05:57.380Z,97626.06
2019-04-05T07:08:25.439Z,97630.35
2019-04-05T07:10:52.268Z,97634.58
2019-04-05T07:13:19.263Z,97638.11
2019-04-05T07:15:46.705Z,97644.97
2019-04-05T07:18:13.809Z,97643.56
2019-04-05T07:20:40.709Z,97651.10
2019-04-05T07:23:07.929Z,97654.27
2019-04-05T07:25:34.703Z,97660.37
2019-04-05T07:28:03.897Z,97657.08
2019-04-05T07:30:32.595Z,97658.14
2019-04-05T07:33:03.414Z,97652.20
2019-04-05T07:35:33.726Z,97656.30
2019-04-05T07:37:59.728Z,97656.98
2019-04-05T07:40:26.712Z,97659.77
2019-04-05T07:42:53.490Z,97654.26
2019-04-05T07:45:20.536Z,97650.88
2019-04-05T07:47:47.449Z,97654.25
2019-04-05T07:50:17.738Z,97652.20
2019-04-05T07:52:44.980Z,97650.86
2019-04-05T07:55:12.168Z,97654.86
2019-04-05T07:57:39.321Z,97657.70
2019-04-05T08:00:22.820Z,97654.84
2019-04-05T08:02:50.311Z,97643.20
2019-04-05T08:05:17.361Z,97648.70
2019-04-05T08:07:49.352Z,97647.11
2019-04-05T08:10:17.585Z,97647.67
2019-04-05T08:12:48.139Z,97653.87
2019-04-05T08:15:19.021Z,97651.75
2019-04-05T08:17:49.406Z,97662.27
2019-04-05T08:20:17.541Z,97662.84
2019-04-05T08:22:44.622Z,97660.95
2019-04-05T08:25:12.206Z,97659.05
2019-04-05T08:27:41.019Z,97663.77
2019-04-05T08:30:08.705Z,97663.47
2019-04-05T08:32:38.162Z,97667.74
2019-04-05T08:35:09.364Z,97669.39
2019-04-05T08:37:36.534Z,97665.31
2019-04-05T08:40:05.807Z,97661.75
2019-04-05T08:42:35.766Z,97661.43
2019-04-05T08:45:06.001Z,97667.77
2019-04-05T08:47:33.454Z,97669.61
2019-04-05T08:50:00.435Z,97666.65
2019-04-05T08:52:28.226Z,97669.47
2019-04-05T08:54:55.454Z,97671.07
2019-04-05T08:57:22.586Z,97671.87
2019-04-05T08:59:53.222Z,97668.72
2019-04-05T09:02:19.300Z,97665.40
2019-04-05T09:04:49.090Z,97664.88
2019-04-05T09:07:16.299Z,97661.11
2019-04-05T09:09:49.413Z,97657.22
2019-04-05T09:12:17.344Z,97665.80
2019-04-05T09:15:01.420Z,97656.81
2019-04-05T09:17:36.897Z,97655.84
2019-04-05T09:20:05.850Z,97647.84
2019-04-05T09:22:33.704Z,97644.71
2019-04-05T09:25:06.114Z,97642.45
2019-04-05T09:27:35.319Z,97641.50
2019-04-05T09:30:06.533Z,97643.14
2019-04-05T09:32:36.282Z,97639.13
2019-04-05T09:35:04.885Z,97640.47
2019-04-05T09:37:32.941Z,97639.75
2019-04-05T09:40:00.386Z,97634.86
2019-04-05T09:42:27.640Z,97635.02
2019-04-05T09:44:55.181Z,97630.78
2019-04-05T09:47:22.253Z,97638.50
2019-04-05T09:49:49.441Z,97633.34
2019-04-05T09:52:16.614Z,97632.13
2019-04-05T09:54:44.228Z,97627.75
2019-04-05T09:57:11.402Z,97628.32
2019-04-05T09:59:38.392Z,97625.50
2019-04-05T10:02:05.601Z,97624.25
2019-04-05T10:04:33.645Z,97620.81
2019-04-05T10:07:00.415Z,97623.50
2019-04-05T10:09:30.204Z,97617.20
2019-04-05T10:11:57.537Z,97608.95
2019-04-05T10:14:25.109Z,97606.68
2019-04-05T10:16:52.719Z,97611.12
2019-04-05T10:19:23.084Z,97603.34
2019-04-05T10:21:49.983Z,97601.03
2019-04-05T10:24:16.765Z,97601.33
2019-04-05T10:26:46.485Z,97599.02
2019-04-05T10:29:13.284Z,97595.77
2019-04-05T10:31:40.391Z,97597.30
2019-04-05T10:34:07.448Z,97591.63
2019-04-05T10:36:34.249Z,97592.45
2019-04-05T10:39:07.376Z,97589.73
2019-04-05T10:41:34.564Z,97584.63
2019-04-05T10:44:01.473Z,97584.55
2019-04-05T10:46:28.557Z,97583.53
2019-04-05T10:49:01.610Z,97583.38
2019-04-05T10:51:51.863Z,97578.99
2019-04-05T10:54:29.314Z,97569.70
2019-04-05T10:56:57.255Z,97580.09
2019-04-05T10:59:24.364Z,97571.50
2019-04-05T11:01:51.548Z,97566.73
2019-04-05T11:04:18.665Z,97574.44
2019-04-05T11:06:45.945Z,97572.88
2019-04-05T11:09:13.145Z,97573.44
2019-04-05T11:11:40.444Z,97570.73
2019-04-05T11:14:13.721Z,97566.68
2019-04-05T11:16:36.520Z,97562.45
2019-04-05T11:19:03.444Z,97562.38
2019-04-05T11:21:30.215Z,97570.48
2019-04-05T11:23:57.493Z,97567.14
2019-04-05T11:26:24.738Z,97564.04
2019-04-05T11:28:56.180Z,97567.22
2019-04-05T11:31:25.703Z,97566.19
2019-04-05T11:33:53.318Z,97558.17
2019-04-05T11:36:23.281Z,97557.30
2019-04-05T11:38:52.192Z,97557.67
2019-04-05T11:41:27.412Z,97560.23
2019-04-05T11:44:01.725Z,97555.61
2019-04-05T11:46:29.387Z,97562.84
2019-04-05T11:48:57.711Z,97565.56
2019-04-05T11:51:24.936Z,97570.81
2019-04-05T11:53:55.168Z,97570.55
2019-04-05T11:56:24.193Z,97565.55
2019-04-05T11:58:53.210Z,97568.25
2019-04-05T12:01:26.081Z,97563.79
2019-04-05T12:03:53.279Z,97564.83
2019-04-05T12:06:23.860Z,97564.76
2019-04-05T12:08:51.240Z,97563.79
2019-04-05T12:11:18.137Z,97567.68
2019-04-05T12:13:47.680Z,97565.75
2019-04-05T12:16:17.680Z,97561.30
2019-04-05T12:18:45.148Z,97564.73
2019-04-05T12:21:12.501Z,97564.81
2019-04-05T12:23:39.546Z,97558.45
2019-04-05T12:26:06.429Z,97556.45
2019-04-05T12:28:33.792Z,97554.80
2019-04-05T12:31:01.033Z,97552.09
2019-04-05T12:33:28.384Z,97545.94
2019-04-05T12:35:56.872Z,97545.93
2019-04-05T12:38:31.478Z,97541.12
2019-04-05T12:41:02.355Z,97538.11
2019-04-05T12:43:31.904Z,97537.06
2019-04-05T12:45:59.582Z,97536.75
2019-04-05T12:48:26.867Z,97539.22
2019-04-05T12:51:01.130Z,97532.83
2019-04-05T12:53:24.650Z,97530.10
2019-04-05T12:55:56.279Z,97526.27
2019-04-05T12:58:25.484Z,97528.75
2019-04-05T13:00:51.314Z,97532.05
2019-04-05T13:03:20.855Z,97531.17
2019-04-05T13:05:51.331Z,97527.92
2019-04-05T13:08:20.730Z,97522.73
2019-04-05T13:10:48.042Z,97527.11
2019-04-05T13:13:17.735Z,97524.45
2019-04-05T13:15:45.063Z,97515.14
2019-04-05T13:18:12.492Z,97507.25
2019-04-05T13:20:42.160Z,97511.20
2019-04-05T13:23:08.933Z,97509.66
2019-04-05T13:25:36.364Z,97508.96
2019-04-05T13:28:13.299Z,97507.90
2019-04-05T13:30:35.186Z,97505.60
2019-04-05T13:33:02.352Z,97502.70
2019-04-05T13:35:29.715Z,97497.16
2019-04-05T13:37:58.518Z,97502.89
2019-04-05T13:40:27.402Z,97506.77
2019-04-05T13:42:55.441Z,97507.16
2019-04-05T13:45:23.170Z,97511.22
2019-04-05T13:47:50.360Z,97510.42
2019-04-05T13:50:19.645Z,97506.63
2019-04-05T13:52:47.243Z,97504.95
2019-04-05T13:55:14.571Z,97498.50
2019-04-05T13:57:41.798Z,97503.14
2019-04-05T14:00:11.327Z,97496.97
2019-04-05T14:02:38.575Z,97496.34
2019-04-05T14:05:06.818Z,97489.05
2019-04-05T14:07:34.405Z,97492.09
2019-04-05T14:10:10.502Z,97490.97
2019-04-05T14:12:41.063Z,97490.87
2019-04-05T14:15:10.700Z,97492.45
2019-04-05T14:17:38.853Z,97485.45
2019-04-05T14:20:09.083Z,97483.56
2019-04-05T14:22:38.103Z,97485.27
2019-04-05T14:25:10.225Z,97487.41
2019-04-05T14:27:37.104Z,97487.27
2019-04-05T14:30:08.251Z,97490.56
2019-04-05T14:32:35.564Z,97490.17
2019-04-05T14:35:07.953Z,97499.41
2019-04-05T14:37:35.904Z,97493.28
2019-04-05T14:40:06.715Z,97490.33
2019-04-05T14:42:34.694Z,97491.81
2019-04-05T14:45:04.598Z,97488.00
2019-04-05T14:47:32.102Z,97485.28
2019-04-05T14:50:00.962Z,97486.27
2019-04-05T14:52:31.852Z,97484.59
2019-04-05T14:55:00.059Z,97486.18
2019-04-05T14:57:28.486Z,97482.70
2019-04-05T14:59:55.368Z,97487.23
2019-04-05T15:02:26.326Z,97488.24
2019-04-05T15:04:53.921Z,97486.66
2019-04-05T15:07:21.511Z,97488.05
2019-04-05T15:09:48.824Z,97487.70
2019-04-05T15:12:16.352Z,97490.65
2019-04-05T15:14:44.016Z,97488.41
2019-04-05T15:17:11.616Z,97489.94
2019-04-05T15:19:39.421Z,97496.23
2019-04-05T15:22:10.897Z,97500.29
2019-04-05T15:24:38.378Z,97500.70
2019-04-05T15:27:06.040Z,97497.11
2019-04-05T15:29:33.385Z,97499.03
2019-04-05T15:32:01.330Z,97499.04
2019-04-05T15:34:29.290Z,97500.73
2019-04-05T15:36:57.098Z,97498.91
2019-04-05T15:39:26.192Z,97494.84
2019-04-05T15:41:55.442Z,97495.32
2019-04-05T15:44:23.704Z,97499.31
2019-04-05T15:46:53.116Z,97492.14
2019-04-05T15:49:22.711Z,97499.61
2019-04-05T15:51:49.832Z,97495.32
2019-04-05T15:54:17.627Z,97496.84
2019-04-05T15:56:45.578Z,97500.66
2019-04-05T15:59:13.625Z,97496.20
2019-04-05T16:01:43.468Z,97496.91
2019-04-05T16:04:13.908Z,97496.44
2019-04-05T16:06:41.193Z,97494.70
2019-04-05T16:09:10.722Z,97504.23
2019-04-05T16:11:40.850Z,97497.48
2019-04-05T16:14:08.803Z,97505.83
2019-04-05T16:16:36.287Z,97510.05
2019-04-05T16:19:03.393Z,97508.53
2019-04-05T16:21:31.088Z,97510.36
2019-04-05T16:23:57.849Z,97510.67
2019-04-05T16:26:25.608Z,97508.94
2019-04-05T16:28:53.545Z,97513.30
2019-04-05T16:31:20.479Z,97514.27
2019-04-05T16:33:48.012Z,97521.27
2019-04-05T16:36:15.511Z,97517.45
2019-04-05T16:38:43.154Z,97515.45
2019-04-05T16:41:16.779Z,97519.75
2019-04-05T16:43:49.464Z,97521.50
2019-04-05T16:46:16.989Z,97520.32
2019-04-05T16:48:43.736Z,97523.33
2019-04-05T16:51:13.138Z,97510.84
2019-04-05T16:53:42.257Z,97517.37
2019-04-05T16:56:09.314Z,97515.78
2019-04-05T16:58:38.130Z,97519.30
2019-04-05T17:01:05.100Z,97521.19
2019-04-05T17:03:32.465Z,97517.46
2019-04-05T17:05:59.711Z,97516.89
2019-04-05T17:08:30.153Z,97523.89
2019-04-05T17:10:57.182Z,97526.45
2019-04-05T17:13:24.459Z,97523.41
2019-04-05T17:15:52.359Z,97526.27
2019-04-05T17:18:19.650Z,97531.44
2019-04-05T17:20:46.554Z,97534.86
2019-04-05T17:23:14.060Z,97532.00
2019-04-05T17:25:40.996Z,97537.02
2019-04-05T17:28:07.947Z,97532.25
2019-04-05T17:30:40.513Z,97533.91
2019-04-05T17:33:08.551Z,97524.51
2019-04-05T17:35:36.083Z,97525.55
2019-04-05T17:38:04.105Z,97520.56
2019-04-05T17:40:31.807Z,97525.73
2019-04-05T17:42:59.699Z,97528.50
2019-04-05T17:45:26.975Z,97528.26
2019-04-05T17:47:54.080Z,97532.31
2019-04-05T17:50:30.751Z,97539.31
2019-04-05T17:53:10.853Z,97533.66
2019-04-05T17:55:27.170Z,97544.63
2019-04-05T17:57:56.200Z,97544.70
2019-04-05T18:00:29.920Z,97550.03
2019-04-05T18:02:57.083Z,97544.16
2019-04-05T18:05:26.814Z,97546.64
2019-04-05T18:07:54.383Z,97549.27
2019-04-05T18:10:22.554Z,97555.54
2019-04-05T18:12:49.427Z,97552.30
2019-04-05T18:15:16.876Z,97555.78
2019-04-05T18:17:44.145Z,97562.38
2019-04-05T18:20:11.423Z,97560.31
2019-04-05T18:22:38.402Z,97559.73
2019-04-05T18:25:06.412Z,97558.96
2019-04-05T18:27:33.757Z,97561.19
2019-04-05T18:30:00.566Z,97559.11
2019-04-05T18:32:31.036Z,97555.06
2019-04-05T18:34:57.077Z,97559.59
2019-04-05T18:37:23.948Z,97562.77
2019-04-05T18:39:52.301Z,97551.09
2019-04-05T18:42:20.138Z,97559.20
2019-04-05T18:44:47.061Z,97562.86
2019-04-05T18:47:14.027Z,97559.92
2019-04-05T18:49:40.969Z,97563.02
2019-04-05T18:52:07.926Z,97564.36
2019-04-05T18:54:35.363Z,97570.64
2019-04-05T18:57:02.584Z,97567.37
2019-04-05T18:59:29.802Z,97576.09
2019-04-05T19:01:56.702Z,97580.92
2019-04-05T19:04:24.098Z,97581.78
2019-04-05T19:06:53.225Z,97586.23
2019-04-05T19:09:20.582Z,97576.09
2019-04-05T19:11:47.590Z,97583.57
2019-04-05T19:14:14.658Z,97582.61
2019-04-05T19:16:48.013Z,97582.22
2019-04-05T19:19:17.814Z,97584.68
2019-04-05T19:21:44.066Z,97578.31
2019-04-05T19:24:10.936Z,97587.28
2019-04-05T19:26:38.043Z,97583.38
2019-04-05T19:29:05.376Z,97578.56
2019-04-05T19:48:55.848Z,97582.80
2019-04-05T19:51:23.030Z,97575.81
2019-04-05T19:54:00.686Z,97581.88
2019-04-05T19:56:19.686Z,97579.05
2019-04-05T19:58:46.726Z,97580.09
2019-04-05T20:01:14.758Z,97580.88
2019-04-05T20:03:42.110Z,97583.58
2019-04-05T20:06:09.348Z,97582.36
2019-04-05T20:08:36.577Z,97589.20
2019-04-05T20:11:03.672Z,97583.72
2019-04-05T20:13:30.735Z,97588.96
2019-04-05T20:15:58.933Z,97589.64
2019-04-05T20:18:25.779Z,97586.61
2019-04-05T20:20:53.925Z,97584.72
2019-04-05T20:23:21.845Z,97581.19
2019-04-05T20:25:48.812Z,97583.22
2019-04-05T20:28:15.934Z,97583.55
2019-04-05T20:30:43.224Z,97583.16
2019-04-05T20:33:10.052Z,97585.19
2019-04-05T20:35:37.144Z,97591.02
2019-04-05T20:38:04.336Z,97590.34
2019-04-05T20:40:31.358Z,97589.70
2019-04-05T20:42:59.921Z,97582.38
2019-04-05T20:45:27.507Z,97589.08
2019-04-05T20:47:54.353Z,97595.25
2019-04-05T20:50:21.344Z,97593.30
2019-04-05T20:52:49.159Z,97590.45
2019-04-05T20:55:16.593Z,97594.17
2019-04-05T20:57:43.548Z,97599.70
2019-04-05T21:00:12.445Z,97597.36
2019-04-05T21:02:39.485Z,97597.36
2019-04-05T21:05:07.081Z,97594.12
2019-04-05T21:07:33.984Z,97594.66
2019-04-05T21:10:01.004Z,97591.72
2019-04-05T21:12:28.051Z,97591.23
2019-04-05T21:14:55.131Z,97593.52
2019-04-05T21:17:22.352Z,97589.59
2019-04-05T21:19:49.160Z,97590.13
2019-04-05T21:22:16.563Z,97598.08
2019-04-05T21:24:43.871Z,97598.95
2019-04-05T21:27:12.601Z,97597.00
2019-04-05T21:29:39.738Z,97596.09
2019-04-05T21:32:07.088Z,97604.23
2019-04-05T21:34:34.618Z,97593.14
2019-04-05T21:37:01.449Z,97594.17
2019-04-05T21:39:28.237Z,97596.33
2019-04-05T21:41:55.266Z,97603.13
2019-04-05T21:44:22.053Z,97598.36
2019-04-05T21:46:49.056Z,97603.27
2019-04-05T21:49:16.236Z,97603.27
2019-04-05T21:51:45.055Z,97602.73
2019-04-05T21:54:11.924Z,97604.62
2019-04-05T21:56:41.610Z,97612.66
2019-04-05T21:59:08.440Z,97608.17
2019-04-05T22:01:35.438Z,97611.44
2019-04-05T22:04:02.576Z,97603.16
2019-04-05T22:06:29.847Z,97612.96
2019-04-05T22:08:57.004Z,97609.53
2019-04-05T22:11:24.054Z,97607.33
2019-04-05T22:13:50.975Z,97609.73
2019-04-05T22:16:17.865Z,97605.44
2019-04-05T22:18:44.618Z,97609.33
2019-04-05T22:21:11.712Z,97613.82
2019-04-05T22:23:38.969Z,97608.11
2019-04-05T22:26:06.062Z,97611.86
2019-04-05T22:28:33.128Z,97607.32
2019-04-05T22:31:00.192Z,97616.52
2019-04-05T22:33:27.231Z,97623.99
2019-04-05T22:35:54.076Z,97621.83
2019-04-05T22:38:20.959Z,97623.55
2019-04-05T22:40:47.947Z,97623.98
2019-04-05T22:43:14.910Z,97621.70
2019-04-05T22:45:41.984Z,97629.14
2019-04-05T22:48:09.123Z,97625.88
2019-04-05T22:50:36.090Z,97624.12
2019-04-05T22:53:04.867Z,97616.14
2019-04-05T22:55:32.962Z,97625.08
2019-04-05T22:58:00.899Z,97625.73
2019-04-05T23:00:28.637Z,97618.70
2019-04-05T23:02:55.641Z,97628.39
2019-04-05T23:05:22.567Z,97622.50
2019-04-05T23:07:49.386Z,97624.99
2019-04-05T23:10:16.629Z,97630.13
2019-04-05T23:12:44.317Z,97630.20
2019-04-05T23:15:11.806Z,97628.30
2019-04-05T23:17:38.695Z,97630.36
2019-04-05T23:20:07.482Z,97626.55
2019-04-05T23:22:34.771Z,97627.86
2019-04-05T23:25:02.608Z,97629.00
2019-04-05T23:27:30.222Z,97626.44
2019-04-05T23:29:57.378Z,97632.78
2019-04-05T23:32:24.408Z,97629.55
2019-04-05T23:34:51.234Z,97631.34
2019-04-05T23:37:18.120Z,97627.36
2019-04-05T23:39:45.181Z,97639.19
2019-04-05T23:42:12.000Z,97632.95
2019-04-05T23:44:39.274Z,97636.50
2019-04-05T23:47:06.361Z,97639.19
2019-04-05T23:49:33.610Z,97631.61
2019-04-05T23:52:01.023Z,97635.27
2019-04-05T23:54:28.487Z,97629.98
2019-04-05T23:56:55.372Z,97632.92
2019-04-05T23:59:22.438Z,97623.43
